Time;durP1;ratioP1;P1;durP2;ratioP2;P2;SDS_P1;SDS_P2;PMS_P1;PMS_P2;Temp;Humidity;BMP_temperature;BMP_pressure;BME280_temperature;BME280_humidity;BME280_pressure;Samples;Min_cycle;Max_cycle;Signal;HPM_P1;HPM_P2
2022/06/29 00:00:28;;;;;;;;;;;;;;;25.35;37.48;100668.13;5050510;28;1096;-33
2022/06/29 00:02:53;;;;;;;;;;;;;;;25.34;37.71;100663.72;5055244;28;1909;-32
2022/06/29 00:05:21;;;;;;;;;;;;;;;25.33;37.63;100670.16;5061301;28;1183;-32
2022/06/29 00:07:46;;;;;;;;;;;;;;;25.38;38.34;100675.00;5044720;28;1242;-30
2022/06/29 00:10:12;;;;;;;;;;;;;;;25.40;38.04;100673.84;5054493;28;993;-31
2022/06/29 00:12:37;;;;;;;;;;;;;;;25.41;37.74;100670.13;5051152;28;1127;-32
2022/06/29 00:15:03;;;;;;;;;;;;;;;25.38;37.70;100675.84;5056267;28;997;-32
2022/06/29 00:17:30;;;;;;;;;;;;;;;25.35;37.55;100670.81;5054640;28;1107;-33
2022/06/29 00:19:55;;;;;;;;;;;;;;;25.39;37.42;100668.63;5056828;28;997;-32
2022/06/29 00:22:21;;;;;;;;;;;;;;;25.40;36.98;100664.91;5054182;28;1979;-35
2022/06/29 00:24:46;;;;;;;;;;;;;;;25.37;37.39;100674.19;5058832;28;1128;-33
2022/06/29 00:27:11;;;;;;;;;;;;;;;25.36;37.75;100675.19;5052228;28;926;-30
2022/06/29 00:29:37;;;;;;;;;;;;;;;25.40;38.27;100673.84;5054796;28;989;-33
2022/06/29 00:32:02;;;;;;;;;;;;;;;25.42;37.74;100676.34;5049390;28;1017;-34
2022/06/29 00:34:27;;;;;;;;;;;;;;;25.36;37.18;100675.19;5049983;28;1001;-33
2022/06/29 00:36:53;;;;;;;;;;;;;;;25.34;37.22;100679.06;5050170;28;1016;-35
2022/06/29 00:39:18;;;;;;;;;;;;;;;25.34;37.10;100671.81;5054729;28;973;-29
2022/06/29 00:41:44;;;;;;;;;;;;;;;25.31;37.29;100672.16;5052621;28;1968;-32
2022/06/29 00:44:13;;;;;;;;;;;;;;;25.31;37.12;100669.47;5056347;28;1029;-29
2022/06/29 00:46:50;;;;;;;;;;;;;;;25.34;37.43;100669.13;5055060;28;1024;-32
2022/06/29 00:49:16;;;;;;;;;;;;;;;25.31;37.98;100664.09;5057632;28;993;-30
2022/06/29 00:51:43;;;;;;;;;;;;;;;25.36;37.92;100652.81;5050988;28;1215;-32
2022/06/29 00:54:09;;;;;;;;;;;;;;;25.33;37.97;100662.06;5049283;28;957;-31
2022/06/29 00:56:34;;;;;;;;;;;;;;;25.30;37.58;100647.09;5050495;28;1044;-33
2022/06/29 00:58:59;;;;;;;;;;;;;;;25.27;37.57;100652.84;5045259;28;889;-29
2022/06/29 01:01:25;;;;;;;;;;;;;;;25.28;37.68;100653.66;5035707;28;1563;-32
2022/06/29 01:03:50;;;;;;;;;;;;;;;25.26;37.56;100655.69;5054710;28;1917;-32
2022/06/29 01:06:15;;;;;;;;;;;;;;;25.27;37.52;100654.69;5052036;28;874;-33
2022/06/29 01:08:41;;;;;;;;;;;;;;;25.33;37.84;100664.75;5035020;28;1013;-31
2022/06/29 01:11:06;;;;;;;;;;;;;;;25.33;37.54;100659.38;5047321;28;1160;-31
2022/06/29 01:13:31;;;;;;;;;;;;;;;25.34;37.22;100662.91;5054518;28;1024;-34
2022/06/29 01:15:57;;;;;;;;;;;;;;;25.27;37.14;100657.38;5051090;28;1183;-32
2022/06/29 01:18:22;;;;;;;;;;;;;;;25.29;37.45;100666.13;5057770;28;996;-31
2022/06/29 01:20:47;;;;;;;;;;;;;;;25.28;37.67;100664.44;5051908;28;1069;-31
2022/06/29 01:23:13;;;;;;;;;;;;;;;25.33;37.35;100658.53;5052062;28;1969;-32
2022/06/29 01:25:38;;;;;;;;;;;;;;;25.30;37.66;100657.03;5056627;28;1044;-30
2022/06/29 01:28:03;;;;;;;;;;;;;;;25.35;37.70;100654.66;5052810;28;1163;-30
2022/06/29 01:30:29;;;;;;;;;;;;;;;25.41;37.63;100653.09;5049868;28;1102;-33
2022/06/29 01:32:54;;;;;;;;;;;;;;;25.36;37.12;100642.88;5049232;28;1413;-31
2022/06/29 01:35:23;;;;;;;;;;;;;;;25.35;37.16;100653.81;5048342;28;1124;-31
2022/06/29 01:37:48;;;;;;;;;;;;;;;25.35;36.88;100656.50;5050535;28;914;-33
2022/06/29 01:40:13;;;;;;;;;;;;;;;25.31;36.87;100658.69;5051357;28;989;-33
2022/06/29 01:42:39;;;;;;;;;;;;;;;25.33;37.06;100650.44;5053880;28;1953;-31
2022/06/29 01:45:04;;;;;;;;;;;;;;;25.27;37.47;100658.22;5052673;28;1159;-35
2022/06/29 01:47:30;;;;;;;;;;;;;;;25.31;37.68;100659.53;5055500;28;1045;-31
2022/06/29 01:49:55;;;;;;;;;;;;;;;25.36;37.80;100660.91;5055541;28;1159;-32
2022/06/29 01:52:20;;;;;;;;;;;;;;;25.33;37.58;100662.06;5052852;28;1023;-30
2022/06/29 01:54:45;;;;;;;;;;;;;;;25.34;37.22;100658.34;5056828;28;997;-33
2022/06/29 01:57:11;;;;;;;;;;;;;;;25.40;37.44;100663.06;5046151;28;1005;-31
2022/06/29 01:59:36;;;;;;;;;;;;;;;25.34;37.15;100660.22;5051713;28;1033;-32
2022/06/29 02:02:01;;;;;;;;;;;;;;;25.38;37.04;100661.53;5054683;28;1888;-31
2022/06/29 02:04:27;;;;;;;;;;;;;;;25.39;37.45;100660.53;5052790;28;961;-35
2022/06/29 02:06:52;;;;;;;;;;;;;;;25.30;37.30;100657.88;5037644;28;904;-32
2022/06/29 02:09:17;;;;;;;;;;;;;;;25.28;37.58;100659.91;5046678;28;1068;-35
2022/06/29 02:11:43;;;;;;;;;;;;;;;25.34;37.85;100666.44;5050627;28;1073;-31
2022/06/29 02:14:08;;;;;;;;;;;;;;;25.35;37.53;100667.28;5050274;28;973;-33
2022/06/29 02:16:33;;;;;;;;;;;;;;;25.31;37.38;100664.94;5052980;28;954;-32
2022/06/29 02:18:59;;;;;;;;;;;;;;;25.32;37.32;100663.09;5053831;28;991;-33
2022/06/29 02:21:24;;;;;;;;;;;;;;;25.31;37.31;100661.38;5050574;28;974;-30
2022/06/29 02:23:49;;;;;;;;;;;;;;;25.34;37.05;100662.91;5054492;28;1963;-34
2022/06/29 02:26:15;;;;;;;;;;;;;;;25.34;37.53;100661.03;5054386;28;1167;-32
2022/06/29 02:28:40;;;;;;;;;;;;;;;25.35;37.49;100669.97;5055544;28;889;-30
2022/06/29 02:36:33;;;;;;;;;;;;;;;25.31;37.43;100664.09;5039757;28;1123;-33
2022/06/29 02:38:59;;;;;;;;;;;;;;;25.26;37.41;100661.06;5051537;28;1056;-30
2022/06/29 02:41:24;;;;;;;;;;;;;;;25.28;37.38;100659.03;5053118;28;1025;-32
2022/06/29 02:43:49;;;;;;;;;;;;;;;25.27;37.35;100657.38;5052549;28;1894;-34
2022/06/29 02:46:15;;;;;;;;;;;;;;;25.27;37.27;100663.63;5058346;28;958;-30
2022/06/29 02:48:40;;;;;;;;;;;;;;;25.37;37.35;100663.41;5053459;28;981;-33
2022/06/29 02:51:05;;;;;;;;;;;;;;;25.38;38.00;100662.38;5050939;28;1063;-32
2022/06/29 02:53:30;;;;;;;;;;;;;;;25.38;37.44;100662.38;5054588;28;1160;-32
2022/06/29 02:55:56;;;;;;;;;;;;;;;25.40;37.23;100664.91;5049525;28;958;-33
2022/06/29 02:58:21;;;;;;;;;;;;;;;25.38;37.18;100666.94;5047109;28;1009;-31
2022/06/29 03:00:46;;;;;;;;;;;;;;;25.36;37.73;100666.28;5057897;28;1064;-30
2022/06/29 03:03:12;;;;;;;;;;;;;;;25.34;37.48;100674.50;5050942;28;1918;-33
2022/06/29 03:05:37;;;;;;;;;;;;;;;25.32;37.26;100671.16;5049619;28;1128;-31
2022/06/29 03:08:02;;;;;;;;;;;;;;;25.30;37.72;100665.09;5049764;28;1036;-31
2022/06/29 03:10:28;;;;;;;;;;;;;;;25.44;37.80;100668.94;5050097;28;1048;-30
2022/06/29 03:12:53;;;;;;;;;;;;;;;25.45;37.68;100670.63;5055993;28;1183;-31
2022/06/29 03:15:18;;;;;;;;;;;;;;;25.41;37.82;100662.03;5052015;28;977;-30
2022/06/29 03:17:43;;;;;;;;;;;;;;;25.36;37.53;100666.28;5050000;28;1128;-29
2022/06/29 03:20:09;;;;;;;;;;;;;;;25.42;37.37;100668.28;5052570;28;1056;-33
2022/06/29 03:22:35;;;;;;;;;;;;;;;25.41;37.46;100667.41;5049748;28;1960;-34
2022/06/29 03:25:00;;;;;;;;;;;;;;;25.33;37.87;100661.22;5055905;28;1076;-37
2022/06/29 03:27:25;;;;;;;;;;;;;;;25.19;38.24;100663.63;5058518;28;1009;-36
2022/06/29 03:29:51;;;;;;;;;;;;;;;25.10;39.17;100659.25;5058582;28;1286;-35
2022/06/29 03:32:16;;;;;;;;;;;;;;;25.11;38.76;100655.56;5052820;28;841;-38
2022/06/29 03:34:41;;;;;;;;;;;;;;;24.96;39.88;100655.44;5034969;28;1107;-36
2022/06/29 03:37:07;;;;;;;;;;;;;;;25.05;39.10;100657.09;5058691;28;847;-37
2022/06/29 03:39:32;;;;;;;;;;;;;;;24.97;38.99;100663.34;5052883;28;1025;-39
2022/06/29 03:41:57;;;;;;;;;;;;;;;25.03;38.79;100665.34;5052251;28;1902;-36
2022/06/29 03:44:22;;;;;;;;;;;;;;;25.11;38.62;100667.16;5056466;28;997;-38
2022/06/29 03:46:48;;;;;;;;;;;;;;;25.10;38.57;100664.66;5053109;28;1143;-34
2022/06/29 03:49:13;;;;;;;;;;;;;;;25.21;38.77;100668.84;5057128;28;1013;-34
2022/06/29 03:51:38;;;;;;;;;;;;;;;25.22;39.30;100662.44;5052445;28;1081;-37
2022/06/29 03:54:04;;;;;;;;;;;;;;;25.49;39.21;100668.41;5057912;28;985;-34
2022/06/29 03:56:29;;;;;;;;;;;;;;;25.58;37.98;100661.13;5058326;28;1191;-32
2022/06/29 03:58:54;;;;;;;;;;;;;;;25.63;40.22;100669.56;5053180;28;989;-34
2022/06/29 04:01:19;;;;;;;;;;;;;;;25.72;38.15;100664.97;5058658;28;989;-34
2022/06/29 04:03:45;;;;;;;;;;;;;;;25.60;39.88;100662.66;5050185;28;1909;-34
2022/06/29 04:06:10;;;;;;;;;;;;;;;25.72;37.89;100659.59;5055503;28;880;-34
2022/06/29 04:08:37;;;;;;;;;;;;;;;25.80;38.00;100668.47;5051805;28;961;-30
2022/06/29 04:11:02;;;;;;;;;;;;;;;25.74;38.26;100666.47;5048219;28;1024;-30
2022/06/29 04:13:28;;;;;;;;;;;;;;;25.56;38.04;100659.47;5052945;28;997;-33
2022/06/29 04:15:53;;;;;;;;;;;;;;;25.55;38.89;100660.47;5051432;28;998;-33
2022/06/29 04:18:18;;;;;;;;;;;;;;;25.62;38.34;100657.09;5053639;28;1145;-32
2022/06/29 04:23:27;;;;;;;;;;;;;;;25.44;38.00;100668.94;5052333;28;1902;-31
2022/06/29 04:25:53;;;;;;;;;;;;;;;25.45;38.22;100667.91;5056969;28;1060;-29
2022/06/29 04:28:18;;;;;;;;;;;;;;;25.54;38.49;100669.56;5057659;28;1080;-34
2022/06/29 04:30:43;;;;;;;;;;;;;;;25.61;37.88;100660.81;5052869;28;1274;-32
2022/06/29 04:33:08;;;;;;;;;;;;;;;25.73;38.58;100663.94;5051877;28;936;-32
2022/06/29 04:35:34;;;;;;;;;;;;;;;25.71;37.99;100660.63;5052296;28;1005;-32
2022/06/29 04:38:00;;;;;;;;;;;;;;;25.60;38.03;100675.25;5053859;28;1064;-30
2022/06/29 04:40:25;;;;;;;;;;;;;;;25.37;36.84;100668.81;5052896;28;942;-29
2022/06/29 04:42:50;;;;;;;;;;;;;;;25.41;37.53;100671.97;5052639;28;1906;-30
2022/06/29 04:48:00;;;;;;;;;;;;;;;25.50;37.52;100668.25;5056683;28;918;-30
2022/06/29 04:50:25;;;;;;;;;;;;;;;25.59;37.44;100676.28;5056056;28;1056;-31
2022/06/29 04:52:51;;;;;;;;;;;;;;;25.68;37.64;100677.97;5055752;28;954;-32
2022/06/29 04:55:16;;;;;;;;;;;;;;;25.72;37.92;100679.31;5054423;28;997;-33
2022/06/29 04:57:42;;;;;;;;;;;;;;;25.64;37.40;100673.94;5052628;28;969;-30
2022/06/29 05:00:08;;;;;;;;;;;;;;;25.62;37.66;100681.31;5053373;28;981;-32
2022/06/29 05:02:33;;;;;;;;;;;;;;;25.62;37.81;100686.72;5061269;28;1981;-35
2022/06/29 05:04:58;;;;;;;;;;;;;;;25.65;37.83;100679.16;5058634;28;1001;-31
2022/06/29 05:07:24;;;;;;;;;;;;;;;25.63;37.71;100669.56;5058354;28;983;-35
2022/06/29 05:09:49;;;;;;;;;;;;;;;25.66;37.78;100679.97;5055552;28;1025;-32
2022/06/29 05:12:14;;;;;;;;;;;;;;;25.74;38.26;100677.25;5051186;28;1056;-32
2022/06/29 05:14:39;;;;;;;;;;;;;;;25.75;38.17;100676.25;5053024;28;1056;-31
2022/06/29 05:17:05;;;;;;;;;;;;;;;25.78;38.21;100678.59;5061906;28;1122;-34
2022/06/29 05:19:30;;;;;;;;;;;;;;;25.98;38.17;100688.09;5049633;28;1295;-33
2022/06/29 05:21:55;;;;;;;;;;;;;;;26.17;38.12;100689.50;5052039;28;1981;-32
2022/06/29 05:24:20;;;;;;;;;;;;;;;26.21;39.22;100690.81;5045899;28;1352;-33
2022/06/29 05:26:46;;;;;;;;;;;;;;;26.63;38.28;100685.16;5046543;28;1181;-31
2022/06/29 05:29:11;;;;;;;;;;;;;;;26.67;38.12;100674.84;5049472;28;1393;-31
2022/06/29 05:31:36;;;;;;;;;;;;;;;26.62;38.32;100676.25;5057062;28;1005;-34
2022/06/29 05:34:02;;;;;;;;;;;;;;;26.59;38.24;100667.66;5049647;28;1001;-32
2022/06/29 05:36:27;;;;;;;;;;;;;;;26.74;37.46;100679.31;5051487;28;1233;-31
2022/06/29 05:38:52;;;;;;;;;;;;;;;26.71;37.41;100676.16;5058191;28;1232;-30
2022/06/29 05:41:17;;;;;;;;;;;;;;;26.78;38.56;100677.94;5060552;28;1176;-31
2022/06/29 05:43:44;;;;;;;;;;;;;;;26.76;37.93;100681.81;5060984;28;1901;-31
2022/06/29 05:46:10;;;;;;;;;;;;;;;26.85;38.15;100688.00;5056287;28;1259;-31
2022/06/29 05:48:35;;;;;;;;;;;;;;;26.75;37.87;100677.47;5066064;28;1282;-30
2022/06/29 05:51:01;;;;;;;;;;;;;;;26.60;37.88;100685.53;5057761;28;1195;-31
2022/06/29 05:53:27;;;;;;;;;;;;;;;26.78;37.97;100680.66;5057241;28;1245;-32
2022/06/29 05:55:52;;;;;;;;;;;;;;;26.66;37.82;100687.47;5060671;28;1287;-32
2022/06/29 05:58:19;;;;;;;;;;;;;;;26.88;38.34;100685.78;5057773;28;1160;-29
2022/06/29 06:00:44;;;;;;;;;;;;;;;26.76;38.33;100682.69;5063548;28;942;-34
2022/06/29 06:03:10;;;;;;;;;;;;;;;26.82;38.73;100688.38;5055546;28;1914;-33
2022/06/29 06:05:35;;;;;;;;;;;;;;;26.86;39.43;100695.09;5054167;28;1203;-32
2022/06/29 06:08:00;;;;;;;;;;;;;;;26.93;38.62;100701.41;5056454;28;1439;-31
2022/06/29 06:10:26;;;;;;;;;;;;;;;26.86;39.75;100704.00;5052338;28;1168;-31
2022/06/29 06:12:52;;;;;;;;;;;;;;;27.01;38.68;100709.47;5062030;28;1208;-32
2022/06/29 06:15:17;;;;;;;;;;;;;;;27.06;38.06;100706.22;5057058;28;1522;-32
2022/06/29 06:17:42;;;;;;;;;;;;;;;27.14;38.49;100708.03;5055075;28;1379;-30
2022/06/29 06:20:08;;;;;;;;;;;;;;;27.08;38.74;100708.72;5055518;28;1217;-31
2022/06/29 06:22:33;;;;;;;;;;;;;;;27.13;38.48;100706.31;5055661;28;1967;-31
2022/06/29 06:24:58;;;;;;;;;;;;;;;27.21;38.25;100708.13;5058937;28;989;-33
2022/06/29 06:27:24;;;;;;;;;;;;;;;27.16;38.78;100710.53;5058191;28;1025;-34
2022/06/29 06:29:49;;;;;;;;;;;;;;;27.28;38.29;100700.13;5058406;28;937;-33
2022/06/29 06:32:14;;;;;;;;;;;;;;;27.20;37.91;100693.78;5055733;28;985;-32
2022/06/29 06:34:40;;;;;;;;;;;;;;;27.17;37.92;100699.53;5056084;28;1176;-30
2022/06/29 06:37:05;;;;;;;;;;;;;;;27.25;38.35;100693.22;5050110;28;847;-32
2022/06/29 06:39:30;;;;;;;;;;;;;;;27.30;37.87;100692.66;5061592;28;1002;-31
2022/06/29 06:41:55;;;;;;;;;;;;;;;27.20;38.96;100695.63;5052538;28;1971;-31
2022/06/29 06:44:21;;;;;;;;;;;;;;;27.22;37.96;100693.59;5060312;28;950;-31
2022/06/29 06:46:48;;;;;;;;;;;;;;;26.72;37.13;100689.47;5059474;28;1219;-30
2022/06/29 06:49:14;;;;;;;;;;;;;;;26.88;37.09;100685.78;5056199;28;1061;-32
2022/06/29 06:51:40;;;;;;;;;;;;;;;27.06;36.87;100689.19;5052555;28;1231;-31
2022/06/29 06:54:05;;;;;;;;;;;;;;;27.23;37.79;100690.69;5057381;28;1016;-29
2022/06/29 06:56:30;;;;;;;;;;;;;;;27.24;36.89;100695.06;5055583;28;1173;-29
2022/06/29 06:58:56;;;;;;;;;;;;;;;27.30;37.98;100685.41;5054891;28;1327;-29
2022/06/29 07:01:21;;;;;;;;;;;;;;;27.40;37.27;100690.53;5057128;28;1148;-28
2022/06/29 07:03:46;;;;;;;;;;;;;;;27.46;36.71;100702.47;5060467;28;1901;-31
2022/06/29 07:06:12;;;;;;;;;;;;;;;27.36;37.22;100700.03;5051462;28;1356;-30
2022/06/29 07:08:38;;;;;;;;;;;;;;;27.32;36.95;100696.00;5055020;28;1543;-30
2022/06/29 07:11:03;;;;;;;;;;;;;;;27.28;37.58;100700.13;5055628;28;1271;-32
2022/06/29 07:13:29;;;;;;;;;;;;;;;27.39;36.69;100705.88;5062297;28;1021;-32
2022/06/29 07:15:54;;;;;;;;;;;;;;;27.42;37.11;100704.69;5061033;28;1411;-30
2022/06/29 07:18:20;;;;;;;;;;;;;;;27.47;36.84;100706.81;5055944;28;977;-32
2022/06/29 07:20:45;;;;;;;;;;;;;;;27.38;37.23;100701.50;5054484;28;954;-30
2022/06/29 07:23:10;;;;;;;;;;;;;;;27.45;37.46;100707.00;5055313;28;1898;-32
2022/06/29 07:25:36;;;;;;;;;;;;;;;27.36;37.06;100702.72;5058789;28;965;-29
2022/06/29 07:28:01;;;;;;;;;;;;;;;27.46;37.20;100705.16;5057436;28;1278;-33
2022/06/29 07:30:26;;;;;;;;;;;;;;;27.50;36.89;100707.28;5052463;28;1243;-30
2022/06/29 07:32:52;;;;;;;;;;;;;;;27.46;36.95;100707.84;5055784;28;1072;-34
2022/06/29 07:35:17;;;;;;;;;;;;;;;27.54;37.22;100702.34;5052570;28;1573;-30
2022/06/29 07:37:42;;;;;;;;;;;;;;;27.42;37.34;100711.94;5049828;28;965;-32
2022/06/29 07:40:08;;;;;;;;;;;;;;;27.40;37.15;100709.44;5054275;28;1482;-29
2022/06/29 07:42:35;;;;;;;;;;;;;;;27.38;37.05;100711.47;5056641;28;1918;-31
2022/06/29 07:45:01;;;;;;;;;;;;;;;27.44;36.66;100716.16;5051223;28;1462;-30
2022/06/29 07:47:26;;;;;;;;;;;;;;;27.21;36.51;100711.66;5054204;28;1060;-30
2022/06/29 07:49:51;;;;;;;;;;;;;;;27.25;35.38;100709.41;5053107;28;1287;-29
2022/06/29 07:52:16;;;;;;;;;;;;;;;27.41;36.11;100704.88;5047871;28;1227;-30
2022/06/29 07:54:42;;;;;;;;;;;;;;;27.37;36.24;100701.69;5054788;28;1196;-29
2022/06/29 07:57:07;;;;;;;;;;;;;;;27.17;34.48;100714.91;5054581;28;1445;-30
2022/06/29 07:59:32;;;;;;;;;;;;;;;27.37;35.37;100709.81;5053683;28;1557;-29
2022/06/29 08:01:57;;;;;;;;;;;;;;;27.40;36.07;100704.03;5057928;28;1914;-28
2022/06/29 08:04:23;;;;;;;;;;;;;;;27.53;36.77;100707.94;5058047;28;1080;-30
2022/06/29 08:06:48;;;;;;;;;;;;;;;27.45;35.23;100707.00;5051531;28;938;-29
2022/06/29 08:09:13;;;;;;;;;;;;;;;27.39;34.95;100705.06;5051075;28;1116;-29
2022/06/29 08:11:39;;;;;;;;;;;;;;;26.80;33.30;100702.06;5053092;28;1394;-30
2022/06/29 08:14:04;;;;;;;;;;;;;;;27.04;33.66;100705.59;5061489;28;1168;-33
2022/06/29 08:16:29;;;;;;;;;;;;;;;26.98;33.27;100696.31;5060174;28;1069;-33
2022/06/29 08:18:55;;;;;;;;;;;;;;;27.10;34.19;100696.75;5054964;28;1202;-29
2022/06/29 08:21:20;;;;;;;;;;;;;;;27.34;33.20;100693.97;5054690;28;1378;-32
2022/06/29 08:23:45;;;;;;;;;;;;;;;27.44;34.29;100694.53;5057377;28;1909;-32
2022/06/29 08:26:11;;;;;;;;;;;;;;;27.57;35.00;100696.56;5057631;28;1173;-31
2022/06/29 08:28:36;;;;;;;;;;;;;;;27.67;35.04;100695.44;5061638;28;1217;-31
2022/06/29 08:31:01;;;;;;;;;;;;;;;27.50;34.50;100692.94;5060841;28;1161;-30
2022/06/29 08:33:27;;;;;;;;;;;;;;;27.57;34.80;100696.56;5060604;28;1253;-32
2022/06/29 08:35:52;;;;;;;;;;;;;;;27.11;32.68;100697.59;5056042;28;1467;-35
2022/06/29 08:38:17;;;;;;;;;;;;;;;26.68;32.01;100696.25;5052389;28;973;-33
2022/06/29 08:40:44;;;;;;;;;;;;;;;26.60;32.23;100694.47;5062718;28;1000;-35
2022/06/29 08:43:13;;;;;;;;;;;;;;;26.68;32.36;100687.31;5060899;28;1898;-30
2022/06/29 08:45:45;;;;;;;;;;;;;;;27.24;33.04;100700.47;5061215;28;1351;-41
2022/06/29 08:48:11;;;;;;;;;;;;;;;27.48;33.29;100693.13;5046347;28;1196;-42
2022/06/29 08:50:39;;;;;;;;;;;;;;;27.58;33.76;100695.53;5042252;28;889;-42
2022/06/29 08:53:05;;;;;;;;;;;;;;;27.54;33.46;100696.94;5058563;28;1285;-41
2022/06/29 08:55:30;;;;;;;;;;;;;;;27.51;33.34;100690.03;5053592;28;961;-45
2022/06/29 08:57:55;;;;;;;;;;;;;;;27.56;34.08;100702.16;5055440;28;1072;-42
2022/06/29 09:00:21;;;;;;;;;;;;;;;27.49;34.32;100688.56;5036186;28;978;-39
2022/06/29 09:02:46;;;;;;;;;;;;;;;27.48;34.47;100686.88;5056783;28;1910;-40
2022/06/29 09:05:11;;;;;;;;;;;;;;;27.63;34.54;100689.56;5039651;28;1243;-43
2022/06/29 09:07:37;;;;;;;;;;;;;;;27.56;34.46;100681.38;5057783;28;1183;-40
2022/06/29 09:10:11;;;;;;;;;;;;;;;27.62;34.65;100683.34;5057827;28;1108;-41
2022/06/29 09:12:36;;;;;;;;;;;;;;;27.58;35.15;100684.72;5057214;28;1191;-41
2022/06/29 09:15:03;;;;;;;;;;;;;;;27.64;34.14;100683.16;5056226;28;989;-39
2022/06/29 09:17:31;;;;;;;;;;;;;;;27.59;35.05;100681.00;5050263;28;1068;-41
2022/06/29 09:19:57;;;;;;;;;;;;;;;27.62;35.33;100677.94;5049367;28;1028;-39
2022/06/29 09:22:22;;;;;;;;;;;;;;;27.56;35.21;100680.56;5049836;28;2215;-39
2022/06/29 09:24:47;;;;;;;;;;;;;;;27.52;34.42;100671.97;5054039;28;1210;-39
2022/06/29 09:27:13;;;;;;;;;;;;;;;27.56;35.02;100662.47;5056544;28;1177;-41
2022/06/29 09:29:39;;;;;;;;;;;;;;;27.71;35.38;100659.75;5056253;28;1201;-41
2022/06/29 09:32:05;;;;;;;;;;;;;;;27.74;35.01;100650.47;5057344;28;1339;-41
2022/06/29 09:34:30;;;;;;;;;;;;;;;27.74;35.29;100653.16;5055125;28;1219;-41
2022/06/29 09:36:56;;;;;;;;;;;;;;;27.63;35.19;100658.00;5053718;28;1197;-41
2022/06/29 09:39:33;;;;;;;;;;;;;;;27.55;35.26;100651.84;5055815;28;1270;-41
2022/06/29 09:41:59;;;;;;;;;;;;;;;27.88;35.57;100648.72;5043186;28;1965;-45
2022/06/29 09:44:24;;;;;;;;;;;;;;;27.85;35.76;100651.81;5059241;28;1589;-39
2022/06/29 09:46:49;;;;;;;;;;;;;;;27.72;35.08;100645.25;5058912;28;1565;-38
2022/06/29 09:49:15;;;;;;;;;;;;;;;27.73;35.82;100637.94;5039388;28;1466;-40
2022/06/29 09:51:41;;;;;;;;;;;;;;;27.73;35.85;100638.81;5034796;28;1305;-40
2022/06/29 09:54:07;;;;;;;;;;;;;;;27.87;35.36;100625.44;5036585;28;1494;-40
2022/06/29 09:56:32;;;;;;;;;;;;;;;27.91;35.20;100634.00;5059836;28;1265;-38
2022/06/29 09:58:58;;;;;;;;;;;;;;;27.85;35.61;100632.91;5054747;28;1375;-37
2022/06/29 10:04:07;;;;;;;;;;;;;;;27.74;35.46;100632.34;5062222;28;1910;-40
2022/06/29 10:06:32;;;;;;;;;;;;;;;27.87;35.53;100631.69;5059332;28;1370;-38
2022/06/29 10:08:58;;;;;;;;;;;;;;;27.84;35.27;100621.22;5058421;28;1089;-39
2022/06/29 10:14:33;;;;;;;;;;;;;;;28.07;35.50;100638.31;5051973;28;1181;-39
2022/06/29 10:17:12;;;;;;;;;;;;;;;28.01;35.12;100648.03;5050244;28;1351;-38
2022/06/29 10:19:43;;;;;;;;;;;;;;;28.09;36.37;100647.91;5030845;28;842;-40
2022/06/29 10:22:08;;;;;;;;;;;;;;;28.06;35.53;100632.06;5027608;28;1898;-39
2022/06/29 10:24:37;;;;;;;;;;;;;;;28.19;35.26;100628.69;5049749;28;1169;-39
2022/06/29 10:27:06;;;;;;;;;;;;;;;28.24;34.59;100620.81;5055504;28;1157;-41
2022/06/29 10:29:32;;;;;;;;;;;;;;;28.15;35.42;100630.09;5054400;28;1004;-40
2022/06/29 10:31:58;;;;;;;;;;;;;;;28.02;34.92;100629.94;5057482;28;1244;-40
2022/06/29 10:34:37;;;;;;;;;;;;;;;27.89;34.87;100626.09;5057027;28;1166;-42
2022/06/29 10:37:05;;;;;;;;;;;;;;;27.96;35.56;100626.97;5059155;28;1156;-39
2022/06/29 10:39:49;;;;;;;;;;;;;;;28.16;35.68;100622.81;5055910;28;1391;-42
2022/06/29 10:45:04;;;;;;;;;;;;;;;28.09;35.39;100617.34;5054020;28;1233;-41
2022/06/29 10:47:30;;;;;;;;;;;;;;;28.09;35.93;100620.06;5056335;28;1275;-41
2022/06/29 10:50:13;;;;;;;;;;;;;;;28.16;35.45;100622.81;5056795;28;1152;-41
2022/06/29 10:52:39;;;;;;;;;;;;;;;28.21;35.50;100617.66;5057801;28;1172;-42
2022/06/29 10:55:04;;;;;;;;;;;;;;;28.32;35.56;100613.59;5059870;28;1201;-39
2022/06/29 10:57:33;;;;;;;;;;;;;;;28.48;35.06;100615.22;5061364;28;1331;-40
2022/06/29 10:59:58;;;;;;;;;;;;;;;28.44;34.85;100617.50;5056960;28;990;-39
2022/06/29 11:02:23;;;;;;;;;;;;;;;28.47;35.08;100617.09;5057824;28;1922;-41
2022/06/29 11:04:48;;;;;;;;;;;;;;;28.51;35.41;100606.69;5055585;28;1186;-39
2022/06/29 11:12:48;;;;;;;;;;;;;;;28.42;35.46;100614.13;5059710;28;1263;-40
2022/06/29 11:17:57;;;;;;;;;;;;;;;28.35;33.92;100613.22;5055335;28;930;-38
2022/06/29 11:20:24;;;;;;;;;;;;;;;28.35;35.82;100615.94;5051172;28;1394;-42
2022/06/29 11:22:50;;;;;;;;;;;;;;;28.46;35.43;100599.16;5054048;28;1905;-37
2022/06/29 11:25:15;;;;;;;;;;;;;;;28.35;35.25;100600.56;5050267;28;1024;-37
2022/06/29 11:27:40;;;;;;;;;;;;;;;28.44;34.74;100587.72;5050774;28;1115;-39
2022/06/29 11:30:09;;;;;;;;;;;;;;;28.30;34.76;100600.28;5052557;28;1130;-38
2022/06/29 11:32:41;;;;;;;;;;;;;;;27.98;32.19;100607.88;5055886;28;1239;-39
2022/06/29 11:35:07;;;;;;;;;;;;;;;28.15;32.11;100603.03;5053368;28;1112;-38
2022/06/29 11:37:32;;;;;;;;;;;;;;;28.42;35.17;100608.72;5052858;28;943;-41
2022/06/29 11:39:57;;;;;;;;;;;;;;;28.50;34.24;100601.47;5054682;28;945;-39
2022/06/29 11:45:16;;;;;;;;;;;;;;;28.13;34.75;100605.09;5045733;28;996;-36
2022/06/29 11:47:53;;;;;;;;;;;;;;;27.91;31.36;100598.88;5051535;28;1144;-37
2022/06/29 11:50:19;;;;;;;;;;;;;;;27.80;31.27;100587.53;5055281;28;982;-36
2022/06/29 11:52:45;;;;;;;;;;;;;;;27.86;31.05;100581.34;5057138;28;1152;-35
2022/06/29 11:55:11;;;;;;;;;;;;;;;27.87;30.80;100579.47;5061270;28;1006;-34
2022/06/29 11:57:36;;;;;;;;;;;;;;;28.03;32.71;100580.28;5038918;28;1151;-34
2022/06/29 12:00:06;;;;;;;;;;;;;;;28.20;32.35;100583.53;5058109;28;966;-36
2022/06/29 12:02:34;;;;;;;;;;;;;;;28.22;32.69;100582.31;5058689;28;1902;-35
2022/06/29 12:05:00;;;;;;;;;;;;;;;28.24;33.53;100572.13;5056545;28;1060;-36
2022/06/29 12:07:25;;;;;;;;;;;;;;;27.97;31.81;100571.06;5054379;28;985;-37
2022/06/29 12:09:51;;;;;;;;;;;;;;;27.83;31.73;100562.81;5059129;28;1009;-36
2022/06/29 12:12:17;;;;;;;;;;;;;;;27.47;30.63;100561.78;5056293;28;1163;-37
2022/06/29 12:14:42;;;;;;;;;;;;;;;27.40;30.98;100560.84;5059806;28;982;-37
2022/06/29 12:17:09;;;;;;;;;;;;;;;27.33;30.73;100555.38;5058564;28;1025;-37
2022/06/29 12:19:34;;;;;;;;;;;;;;;27.65;31.69;100570.47;5058309;28;1152;-38
2022/06/29 12:23:35;;;;;;;;;;;;;;;23.73;44.70;100562.75;5100756;27;1337;-32
2022/06/29 12:26:00;;;;;;;;;;;;;;;22.43;48.51;100567.09;5092073;28;980;-41
2022/06/29 12:28:26;;;;;;;;;;;;;;;21.87;49.64;100560.09;5091843;28;1084;-38
2022/06/29 12:30:51;;;;;;;;;;;;;;;24.41;45.25;100569.88;5093695;28;977;-42
2022/06/29 12:33:17;;;;;;;;;;;;;;;23.94;44.75;100554.22;5093686;28;989;-38
2022/06/29 12:35:42;;;;;;;;;;;;;;;21.92;49.65;100551.59;5092168;28;958;-42
2022/06/29 12:38:08;;;;;;;;;;;;;;;23.36;48.96;100565.63;5095431;28;1084;-40
2022/06/29 12:40:34;;;;;;;;;;;;;;;25.42;43.26;100561.38;5097144;28;1257;-40
2022/06/29 12:44:04;;;;;;;;;;;;;;;21.73;50.77;100550.69;5073694;28;1337;-42
2022/06/29 12:46:30;;;;;;;;;;;;;;;23.82;46.99;100544.81;5072821;28;1013;-41
2022/06/29 12:48:55;;;;;;;;;;;;;;;24.03;44.78;100555.06;5073547;28;1187;-41
2022/06/29 12:51:21;;;;;;;;;;;;;;;21.75;50.48;100544.19;5069444;28;1001;-40
2022/06/29 12:53:47;;;;;;;;;;;;;;;23.40;48.71;100542.03;5066664;28;965;-40
2022/06/29 12:56:13;;;;;;;;;;;;;;;24.53;43.71;100538.94;5069644;28;1071;-41
2022/06/29 12:58:38;;;;;;;;;;;;;;;21.84;50.30;100539.78;5072984;28;1041;-40
2022/06/29 13:01:03;;;;;;;;;;;;;;;23.75;46.83;100533.03;5069388;28;1163;-40
2022/06/29 13:03:28;;;;;;;;;;;;;;;24.20;44.39;100536.28;5072737;28;1906;-42
2022/06/29 13:05:54;;;;;;;;;;;;;;;21.90;50.40;100523.09;5071479;28;1211;-39
2022/06/29 13:08:19;;;;;;;;;;;;;;;22.57;51.97;100525.47;5072935;28;957;-40
2022/06/29 13:10:45;;;;;;;;;;;;;;;25.18;41.76;100528.19;5072830;28;1160;-40
2022/06/29 13:13:10;;;;;;;;;;;;;;;22.19;49.84;100533.75;5072990;28;1137;-41
2022/06/29 13:15:35;;;;;;;;;;;;;;;22.49;52.02;100523.56;5072710;28;1195;-38